createdAt,value
2022-11-18T00:01:51.764Z,22.58
2022-11-18T00:04:18.980Z,36.05
2022-11-18T00:06:46.168Z,21.55
2022-11-18T00:09:13.344Z,22.77
2022-11-18T00:11:59.043Z,20.75
2022-11-18T00:14:27.544Z,30.00
2022-11-18T00:17:05.255Z,15.82
2022-11-18T00:19:33.875Z,27.27
2022-11-18T00:22:01.619Z,18.40
2022-11-18T00:24:28.796Z,20.75
2022-11-18T00:26:56.428Z,17.83
2022-11-18T00:29:24.264Z,17.45
2022-11-18T00:31:51.440Z,17.88
2022-11-18T00:34:19.292Z,17.50
2022-11-18T00:36:47.035Z,24.15
2022-11-18T00:39:15.496Z,13.90
2022-11-18T00:42:01.567Z,18.60
2022-11-18T00:44:31.503Z,15.15
2022-11-18T00:46:58.734Z,12.82
2022-11-18T00:49:25.931Z,11.02
2022-11-18T00:51:53.175Z,10.00
2022-11-18T00:54:20.680Z,10.48
2022-11-18T00:56:47.866Z,10.15
2022-11-18T00:59:15.288Z,8.75
2022-11-18T01:01:42.871Z,8.52
2022-11-18T01:04:10.076Z,9.65
2022-11-18T01:06:37.381Z,8.73
2022-11-18T01:09:04.735Z,8.52
2022-11-18T01:11:50.486Z,7.53
2022-11-18T01:14:18.009Z,5.97
2022-11-18T01:16:50.985Z,9.07
2022-11-18T01:19:19.615Z,7.18
2022-11-18T01:21:47.332Z,6.50
2022-11-18T01:24:14.753Z,7.28
2022-11-18T01:26:42.041Z,11.88
2022-11-18T01:29:09.225Z,6.05
2022-11-18T01:31:45.535Z,8.38
2022-11-18T01:34:22.753Z,5.03
2022-11-18T01:36:53.174Z,5.65
2022-11-18T01:39:20.427Z,7.63
2022-11-18T01:41:47.627Z,5.28
2022-11-18T01:44:33.813Z,5.40
2022-11-18T01:47:00.989Z,7.97
2022-11-18T01:49:28.583Z,9.25
2022-11-18T01:51:57.466Z,6.75
2022-11-18T01:54:26.980Z,11.05
2022-11-18T01:56:56.335Z,7.80
2022-11-18T01:59:26.216Z,8.15
2022-11-18T02:01:59.713Z,6.20
2022-11-18T02:04:27.872Z,7.28
2022-11-18T02:06:55.614Z,6.40
2022-11-18T02:09:23.427Z,6.85
2022-11-18T02:11:51.173Z,6.68
2022-11-18T02:14:20.189Z,8.50
2022-11-18T02:16:59.745Z,7.97
2022-11-18T02:19:53.304Z,9.65
2022-11-18T02:22:39.514Z,13.35
2022-11-18T02:25:12.909Z,11.50
2022-11-18T02:27:58.787Z,7.68
2022-11-18T02:30:26.319Z,8.75
2022-11-18T02:32:58.321Z,18.02
2022-11-18T02:35:40.204Z,10.20
2022-11-18T02:38:13.263Z,10.73
2022-11-18T02:40:42.650Z,13.00
2022-11-18T02:43:30.100Z,8.68
2022-11-18T02:46:00.376Z,10.25
2022-11-18T02:48:28.518Z,10.68
2022-11-18T02:50:56.003Z,10.73
2022-11-18T02:53:24.232Z,8.65
2022-11-18T02:55:51.710Z,11.40
2022-11-18T02:58:23.591Z,11.23
2022-11-18T03:00:57.778Z,7.00
2022-11-18T03:03:25.236Z,12.40
2022-11-18T03:06:11.514Z,14.25
2022-11-18T03:08:41.665Z,13.43
2022-11-18T03:11:15.375Z,9.30
2022-11-18T03:14:01.490Z,7.80
2022-11-18T03:16:32.933Z,10.00
2022-11-18T03:19:08.604Z,9.32
2022-11-18T03:21:38.381Z,9.25
2022-11-18T03:24:12.219Z,8.93
2022-11-18T03:26:40.847Z,7.55
2022-11-18T03:29:18.040Z,7.82
2022-11-18T03:31:51.290Z,12.57
2022-11-18T03:34:21.541Z,8.52
2022-11-18T03:36:52.097Z,14.15
2022-11-18T03:39:21.231Z,16.42
2022-11-18T03:41:52.624Z,20.50
2022-11-18T03:44:22.038Z,24.50
2022-11-18T03:46:53.311Z,36.20
2022-11-18T03:49:27.366Z,26.55
2022-11-18T03:52:07.056Z,32.22
2022-11-18T03:54:34.979Z,26.15
2022-11-18T03:57:09.582Z,63.00
2022-11-18T03:59:39.420Z,50.45
2022-11-18T04:02:06.678Z,27.40
2022-11-18T04:04:34.141Z,30.75
2022-11-18T04:07:18.601Z,24.67
2022-11-18T04:09:53.433Z,23.35
2022-11-18T04:12:21.360Z,26.42
2022-11-18T04:14:52.341Z,19.52
2022-11-18T04:17:24.268Z,24.50
2022-11-18T04:19:51.533Z,60.30
2022-11-18T04:22:19.349Z,24.67
2022-11-18T04:24:46.883Z,54.45
2022-11-18T04:27:14.402Z,20.75
2022-11-18T04:29:41.639Z,21.30
2022-11-18T04:32:09.000Z,17.38
2022-11-18T04:34:36.354Z,18.17
2022-11-18T04:37:03.688Z,17.45
2022-11-18T04:39:30.844Z,20.38
2022-11-18T04:41:58.159Z,19.30
2022-11-18T04:44:29.926Z,19.10
2022-11-18T04:46:58.004Z,25.90
2022-11-18T04:49:25.890Z,23.23
2022-11-18T04:51:53.476Z,26.35
2022-11-18T04:54:21.099Z,22.15
2022-11-18T04:56:49.613Z,22.23
2022-11-18T04:59:18.757Z,25.08
2022-11-18T05:01:46.388Z,33.00
2022-11-18T05:04:14.615Z,33.05
2022-11-18T05:06:41.887Z,37.08
2022-11-18T05:09:09.359Z,33.88
2022-11-18T05:11:55.161Z,49.97
2022-11-18T05:14:22.381Z,80.35
2022-11-18T05:16:49.557Z,63.55
2022-11-18T05:19:17.034Z,105.55
2022-11-18T05:21:44.437Z,93.10
2022-11-18T05:24:11.655Z,86.15
2022-11-18T05:26:38.937Z,31.88
2022-11-18T05:29:06.400Z,27.40
2022-11-18T05:31:33.782Z,30.20
2022-11-18T05:34:01.392Z,25.02
2022-11-18T05:36:28.974Z,22.27
2022-11-18T05:38:58.933Z,24.50
2022-11-18T05:41:44.691Z,50.88
2022-11-18T05:44:12.167Z,30.80
2022-11-18T05:46:39.468Z,31.20
2022-11-18T05:49:07.786Z,23.20
2022-11-18T05:51:35.627Z,47.05
2022-11-18T05:54:08.106Z,25.85
2022-11-18T05:56:40.068Z,32.13
2022-11-18T05:59:07.383Z,23.58
2022-11-18T06:01:39.428Z,35.67
2022-11-18T06:04:10.877Z,72.72
2022-11-18T06:06:38.149Z,68.90
2022-11-18T06:09:06.419Z,56.22
2022-11-18T06:11:37.320Z,39.95
2022-11-18T06:14:07.243Z,48.38
2022-11-18T06:16:40.654Z,33.50
2022-11-18T06:19:08.438Z,39.70
2022-11-18T06:21:35.831Z,42.33
2022-11-18T06:24:03.502Z,33.03
2022-11-18T06:26:30.766Z,31.55
2022-11-18T06:28:58.236Z,41.33
2022-11-18T06:31:25.478Z,53.40
2022-11-18T06:33:52.731Z,69.25
2022-11-18T06:36:19.950Z,84.35
2022-11-18T06:38:47.211Z,68.90
2022-11-18T06:41:14.465Z,50.95
2022-11-18T06:43:42.006Z,65.72
2022-11-18T06:46:31.420Z,55.50
2022-11-18T06:48:58.912Z,58.33
2022-11-18T06:51:26.508Z,71.85
2022-11-18T06:53:56.422Z,99.63
2022-11-18T06:56:24.253Z,83.05
2022-11-18T06:58:58.573Z,66.93
2022-11-18T07:01:27.158Z,69.95
2022-11-18T07:03:54.450Z,82.32
2022-11-18T07:06:22.917Z,93.72
2022-11-18T07:08:50.597Z,40.92
2022-11-18T07:11:19.034Z,80.38
2022-11-18T07:13:46.330Z,73.57
2022-11-18T07:16:14.690Z,63.60
2022-11-18T07:18:42.532Z,48.58
2022-11-18T07:21:11.450Z,50.15
2022-11-18T07:23:38.939Z,52.13
2022-11-18T07:26:06.568Z,35.42
2022-11-18T07:28:33.768Z,52.83
2022-11-18T07:31:05.502Z,52.75
2022-11-18T07:33:33.465Z,41.22
2022-11-18T07:36:04.769Z,61.25
2022-11-18T07:38:32.023Z,76.32
2022-11-18T07:41:10.123Z,67.03
2022-11-18T07:43:37.666Z,80.43
2022-11-18T07:46:14.014Z,99.95
2022-11-18T07:48:41.965Z,63.50
2022-11-18T07:51:09.380Z,81.82
2022-11-18T07:53:37.061Z,100.47
2022-11-18T07:56:05.090Z,84.43
2022-11-18T07:58:32.402Z,106.05
2022-11-18T08:00:59.829Z,171.20
2022-11-18T08:03:30.042Z,96.25
2022-11-18T08:06:00.852Z,122.85
2022-11-18T08:08:28.529Z,89.57
2022-11-18T08:10:59.518Z,116.75
2022-11-18T08:13:27.347Z,142.15
2022-11-18T08:15:54.794Z,65.68
2022-11-18T08:18:22.098Z,120.15
2022-11-18T08:20:49.668Z,154.63
2022-11-18T08:23:17.318Z,140.90
2022-11-18T08:25:45.475Z,157.60
2022-11-18T08:28:13.365Z,70.60
2022-11-18T08:30:40.962Z,95.78
2022-11-18T08:33:10.802Z,122.32
2022-11-18T08:35:38.030Z,81.65
2022-11-18T08:38:05.326Z,78.95
2022-11-18T08:40:32.666Z,144.05
2022-11-18T08:42:59.986Z,98.47
2022-11-18T08:45:27.311Z,111.72
2022-11-18T08:47:54.717Z,69.93
2022-11-18T08:50:21.997Z,189.88
2022-11-18T08:52:49.290Z,569.50
2022-11-18T08:55:16.521Z,173.48
2022-11-18T08:57:43.782Z,271.77
2022-11-18T09:00:11.444Z,102.80
2022-11-18T09:02:38.624Z,103.32
2022-11-18T09:05:06.164Z,57.63
2022-11-18T09:07:33.322Z,174.13
2022-11-18T09:10:00.633Z,73.15
2022-11-18T09:12:27.883Z,80.80
2022-11-18T09:17:42.380Z,82.90
2022-11-18T09:20:10.137Z,102.93
2022-11-18T09:22:38.110Z,63.58
2022-11-18T09:25:05.545Z,53.55
2022-11-18T09:27:32.972Z,55.97
2022-11-18T09:30:00.246Z,62.13
2022-11-18T09:32:27.533Z,64.22
2022-11-18T09:34:54.749Z,61.72
2022-11-18T09:37:22.616Z,41.45
2022-11-18T09:39:49.879Z,40.33
2022-11-18T09:42:17.056Z,69.10
2022-11-18T09:45:02.665Z,46.53
2022-11-18T09:47:34.528Z,68.90
2022-11-18T09:50:20.493Z,51.47
2022-11-18T09:53:14.252Z,43.90
2022-11-18T09:55:41.802Z,31.80
2022-11-18T09:58:27.868Z,46.65
2022-11-18T10:00:55.134Z,36.67
2022-11-18T10:03:30.341Z,32.58
2022-11-18T10:05:57.523Z,41.65
2022-11-18T10:08:37.473Z,33.15
2022-11-18T10:11:10.857Z,36.13
2022-11-18T10:13:44.258Z,59.58
2022-11-18T10:16:31.700Z,31.17
2022-11-18T10:19:00.632Z,35.85
2022-11-18T10:21:47.379Z,103.32
2022-11-18T10:24:14.722Z,46.55
2022-11-18T10:26:42.659Z,48.67
2022-11-18T10:29:11.027Z,50.63
2022-11-18T10:31:39.347Z,50.58
2022-11-18T10:34:06.938Z,61.78
2022-11-18T10:36:34.655Z,63.53
2022-11-18T10:39:15.724Z,59.25
2022-11-18T10:41:53.250Z,51.60
2022-11-18T10:44:46.915Z,51.70
2022-11-18T10:47:24.099Z,50.33
2022-11-18T10:49:52.268Z,56.17
2022-11-18T10:52:19.545Z,43.53
2022-11-18T10:54:46.874Z,50.20
2022-11-18T10:57:16.334Z,40.15
2022-11-18T10:59:52.639Z,62.72
2022-11-18T11:02:40.102Z,36.17
2022-11-18T11:05:23.794Z,45.40
2022-11-18T11:08:34.439Z,25.63
2022-11-18T11:11:00.002Z,35.50
2022-11-18T11:13:28.456Z,23.10
2022-11-18T11:15:57.318Z,26.08
2022-11-18T11:18:42.749Z,27.95
2022-11-18T11:21:14.036Z,25.35
2022-11-18T11:23:41.362Z,71.93
2022-11-18T11:29:11.048Z,24.20
2022-11-18T11:31:38.206Z,32.00
2022-11-18T11:34:14.545Z,22.30
2022-11-18T11:36:48.959Z,24.63
2022-11-18T11:39:36.685Z,17.55
2022-11-18T11:42:12.674Z,11.88
2022-11-18T11:44:42.882Z,9.73
2022-11-18T11:47:35.769Z,14.32
2022-11-18T11:50:07.306Z,16.00
2022-11-18T11:52:43.141Z,14.30
2022-11-18T11:55:22.901Z,20.52
2022-11-18T11:57:58.884Z,42.05
2022-11-18T12:00:28.853Z,72.07
2022-11-18T12:03:03.260Z,91.15
2022-11-18T12:05:39.272Z,27.55
2022-11-18T12:08:15.703Z,21.98
2022-11-18T12:10:45.933Z,31.60
2022-11-18T12:13:19.144Z,18.77
2022-11-18T12:15:56.033Z,17.30
2022-11-18T12:18:27.747Z,26.73
2022-11-18T12:20:55.467Z,22.38
2022-11-18T12:23:24.348Z,11.57
2022-11-18T12:25:53.501Z,9.48
2022-11-18T12:28:41.170Z,10.40
2022-11-18T12:31:23.264Z,7.38
2022-11-18T12:33:55.079Z,10.32
2022-11-18T12:36:29.679Z,13.23
2022-11-18T12:38:57.472Z,13.88
2022-11-18T12:41:58.450Z,18.75
2022-11-18T12:44:29.556Z,16.95
2022-11-18T12:47:00.799Z,16.63
2022-11-18T12:49:28.042Z,16.83
2022-11-18T12:51:59.301Z,19.38
2022-11-18T12:54:29.608Z,19.23
2022-11-18T12:56:58.648Z,21.00
2022-11-18T12:59:36.635Z,20.30
2022-11-18T13:02:16.742Z,15.07
2022-11-18T13:04:47.610Z,16.17
2022-11-18T13:07:37.309Z,17.98
2022-11-18T13:10:12.539Z,19.55
2022-11-18T13:12:40.726Z,17.83
2022-11-18T13:15:31.486Z,21.23
2022-11-18T13:18:18.432Z,21.60
2022-11-18T13:20:55.772Z,23.98
2022-11-18T13:23:53.847Z,27.40
2022-11-18T13:26:33.966Z,27.75
2022-11-18T13:29:26.704Z,26.13
2022-11-18T13:31:56.980Z,26.73
2022-11-18T13:34:28.358Z,27.90
2022-11-18T13:36:56.692Z,24.42
2022-11-18T13:39:31.874Z,31.65
2022-11-18T13:42:05.982Z,28.27
2022-11-18T13:44:37.796Z,27.38
2022-11-18T13:47:07.574Z,28.92
2022-11-18T13:49:55.028Z,26.90
2022-11-18T13:52:25.571Z,25.02
2022-11-18T13:54:54.462Z,26.30
2022-11-18T13:57:22.916Z,30.45
2022-11-18T13:59:51.207Z,27.05
2022-11-18T14:02:18.927Z,26.20
2022-11-18T14:04:57.566Z,25.38
2022-11-18T14:07:30.317Z,26.00
2022-11-18T14:10:00.450Z,20.52
2022-11-18T14:12:29.510Z,22.33
2022-11-18T14:15:15.609Z,22.02
2022-11-18T14:17:56.782Z,25.38
2022-11-18T14:20:24.924Z,24.23
2022-11-18T14:22:56.719Z,23.20
2022-11-18T14:25:27.193Z,22.75
2022-11-18T14:27:55.583Z,17.65
2022-11-18T14:30:29.050Z,12.88
2022-11-18T14:35:23.281Z,12.85
2022-11-18T14:37:56.579Z,11.13
2022-11-18T14:40:31.954Z,10.80
2022-11-18T14:43:00.208Z,15.15
2022-11-18T14:45:27.440Z,9.95
2022-11-18T14:47:54.729Z,7.25
2022-11-18T14:50:22.763Z,6.82
2022-11-18T14:52:49.941Z,6.10
2022-11-18T14:55:17.293Z,5.72
2022-11-18T14:57:44.430Z,5.22
2022-11-18T15:00:16.121Z,6.50
2022-11-18T15:02:43.315Z,4.95
2022-11-18T15:05:11.212Z,5.50
2022-11-18T15:07:38.434Z,9.80
2022-11-18T15:10:05.739Z,6.30
2022-11-18T15:12:32.904Z,6.20
2022-11-18T15:15:00.163Z,6.13
2022-11-18T15:17:27.512Z,6.97
2022-11-18T15:19:54.858Z,8.73
2022-11-18T15:22:22.090Z,8.73
2022-11-18T15:24:49.278Z,17.52
2022-11-18T15:27:16.438Z,23.85
2022-11-18T15:29:43.712Z,15.55
2022-11-18T15:32:10.880Z,8.23
2022-11-18T15:34:38.151Z,8.90
2022-11-18T15:37:05.441Z,12.15
2022-11-18T15:40:12.451Z,25.42
2022-11-18T15:42:47.487Z,12.38
2022-11-18T15:45:18.877Z,13.13
2022-11-18T15:47:46.144Z,12.07
2022-11-18T15:50:13.577Z,10.98
2022-11-18T15:52:41.113Z,12.80
2022-11-18T15:55:08.825Z,15.35
2022-11-18T15:57:36.007Z,14.65
2022-11-18T16:00:03.297Z,21.63
2022-11-18T16:02:30.516Z,41.08
2022-11-18T16:04:57.804Z,34.78
2022-11-18T16:07:25.131Z,22.10
2022-11-18T16:10:11.063Z,20.88
2022-11-18T16:12:47.286Z,33.05
2022-11-18T16:15:34.123Z,37.67
2022-11-18T16:18:01.535Z,32.58
2022-11-18T16:20:29.089Z,40.50
2022-11-18T16:22:57.348Z,31.33
2022-11-18T16:25:25.174Z,31.33
2022-11-18T16:27:52.506Z,47.15
2022-11-18T16:30:38.435Z,30.73
2022-11-18T16:33:05.802Z,23.60
2022-11-18T16:35:33.076Z,20.90
2022-11-18T16:38:00.328Z,26.67
2022-11-18T16:40:28.560Z,22.88
2022-11-18T16:42:56.016Z,17.48
2022-11-18T16:45:23.340Z,16.23
2022-11-18T16:47:50.568Z,12.90
2022-11-18T16:50:18.043Z,13.80
2022-11-18T16:52:45.305Z,13.60
2022-11-18T16:55:12.567Z,14.10
2022-11-18T16:57:39.867Z,15.57
2022-11-18T17:00:07.507Z,14.10
2022-11-18T17:02:37.440Z,15.45
2022-11-18T17:05:04.800Z,15.95
2022-11-18T17:07:38.097Z,14.18
2022-11-18T17:10:06.153Z,13.88
2022-11-18T17:12:33.359Z,73.93
2022-11-18T17:15:04.124Z,85.75
2022-11-18T17:17:31.306Z,50.33
2022-11-18T17:19:58.545Z,68.30
2022-11-18T17:22:25.802Z,210.65
2022-11-18T17:24:53.142Z,51.72
2022-11-18T17:27:20.418Z,25.60
2022-11-18T17:29:50.798Z,114.05
2022-11-18T17:32:18.476Z,60.75
2022-11-18T17:34:45.657Z,35.50
2022-11-18T17:37:12.856Z,62.88
2022-11-18T17:39:40.088Z,47.08
2022-11-18T17:42:17.737Z,34.97
2022-11-18T17:44:45.006Z,33.13
2022-11-18T17:47:12.230Z,36.25
2022-11-18T17:49:41.467Z,21.88
2022-11-18T17:52:08.799Z,18.65
2022-11-18T17:54:36.273Z,17.35
2022-11-18T17:57:03.571Z,17.88
2022-11-18T17:59:30.892Z,21.33
2022-11-18T18:02:00.792Z,23.48
2022-11-18T18:04:28.176Z,26.05
2022-11-18T18:06:55.753Z,24.55
2022-11-18T18:09:27.022Z,26.63
2022-11-18T18:11:57.657Z,27.02
2022-11-18T18:14:24.910Z,27.67
2022-11-18T18:16:52.391Z,25.95
2022-11-18T18:19:20.681Z,25.95
2022-11-18T18:21:48.380Z,26.80
2022-11-18T18:24:18.293Z,28.55
2022-11-18T18:26:45.884Z,25.38
2022-11-18T18:29:13.391Z,25.60
2022-11-18T18:31:40.655Z,30.02
2022-11-18T18:34:07.959Z,28.90
2022-11-18T18:36:35.141Z,26.27
2022-11-18T18:39:02.705Z,39.38
2022-11-18T18:41:30.343Z,42.45
2022-11-18T18:43:57.623Z,33.72
2022-11-18T18:46:29.876Z,31.98
2022-11-18T18:49:00.758Z,28.17
2022-11-18T18:51:28.699Z,25.88
2022-11-18T18:53:56.425Z,26.80
2022-11-18T18:56:23.742Z,24.67
2022-11-18T18:58:50.980Z,27.15
2022-11-18T19:01:18.828Z,30.25
2022-11-18T19:03:46.263Z,28.95
2022-11-18T19:06:48.630Z,30.80
2022-11-18T19:09:03.123Z,30.20
2022-11-18T19:11:49.068Z,30.98
2022-11-18T19:14:18.122Z,37.08
2022-11-18T19:16:45.699Z,30.55
2022-11-18T19:19:14.470Z,30.08
2022-11-18T19:21:41.697Z,30.15
2022-11-18T19:24:23.137Z,34.38
2022-11-18T19:26:56.250Z,33.72
2022-11-18T19:29:25.785Z,34.78
2022-11-18T19:31:53.097Z,33.97
2022-11-18T19:34:20.624Z,32.28
2022-11-18T19:36:47.999Z,35.00
2022-11-18T19:39:15.179Z,36.38
2022-11-18T19:41:42.504Z,38.45
2022-11-18T19:44:09.802Z,41.05
2022-11-18T19:46:36.966Z,40.67
2022-11-18T19:49:04.225Z,44.17
2022-11-18T19:51:31.530Z,46.60
2022-11-18T19:53:59.903Z,48.25
2022-11-18T19:56:27.277Z,51.95
2022-11-18T19:58:54.862Z,47.97
2022-11-18T20:01:23.656Z,48.65
2022-11-18T20:03:51.670Z,50.58
2022-11-18T20:06:19.409Z,50.13
2022-11-18T20:08:47.783Z,51.17
2022-11-18T20:11:15.788Z,52.08
2022-11-18T20:13:43.687Z,55.30
2022-11-18T20:16:16.082Z,55.38
2022-11-18T20:18:43.701Z,56.00
2022-11-18T20:21:12.104Z,52.97
2022-11-18T20:23:39.268Z,59.35
2022-11-18T20:26:08.796Z,58.85
2022-11-18T20:28:36.714Z,58.50
2022-11-18T20:31:07.798Z,54.42
2022-11-18T20:33:35.725Z,59.63
2022-11-18T20:36:10.058Z,57.10
2022-11-18T20:38:37.273Z,53.28
2022-11-18T20:41:05.694Z,56.67
2022-11-18T20:43:36.926Z,60.35
2022-11-18T20:46:08.268Z,53.33
2022-11-18T20:48:35.796Z,54.20
2022-11-18T20:51:12.765Z,54.60
2022-11-18T20:53:42.073Z,55.40
2022-11-18T20:56:13.577Z,55.40
2022-11-18T20:58:41.343Z,52.33
2022-11-18T21:01:10.554Z,50.70
2022-11-18T21:03:38.433Z,55.42
2022-11-18T21:06:10.869Z,54.95
2022-11-18T21:08:41.373Z,55.08
2022-11-18T21:11:12.002Z,50.42
2022-11-18T21:13:58.415Z,52.22
2022-11-18T21:16:26.113Z,52.35
2022-11-18T21:18:53.399Z,49.47
2022-11-18T21:21:39.418Z,51.38
2022-11-18T21:24:07.136Z,53.65
2022-11-18T21:26:35.327Z,52.78
2022-11-18T21:29:03.487Z,61.17
2022-11-18T21:31:30.751Z,55.70
2022-11-18T21:33:58.251Z,56.38
2022-11-18T21:36:26.795Z,57.60
2022-11-18T21:38:54.140Z,56.58
2022-11-18T21:41:21.421Z,56.60
2022-11-18T21:44:05.057Z,59.97
2022-11-18T21:46:34.162Z,58.65
2022-11-18T21:49:01.950Z,61.65
2022-11-18T21:51:31.425Z,64.68
2022-11-18T21:53:59.095Z,58.78
2022-11-18T21:56:29.441Z,59.28
2022-11-18T21:58:56.921Z,64.60
2022-11-18T22:01:25.949Z,65.43
2022-11-18T22:03:55.813Z,71.10
2022-11-18T22:06:24.546Z,67.00
2022-11-18T22:08:52.164Z,71.07
2022-11-18T22:11:23.377Z,62.03
2022-11-18T22:13:53.941Z,68.68
2022-11-18T22:16:22.711Z,67.32
2022-11-18T22:18:56.644Z,66.03
2022-11-18T22:21:26.574Z,68.15
2022-11-18T22:23:57.134Z,65.15
2022-11-18T22:26:24.308Z,70.03
2022-11-18T22:28:55.614Z,67.38
2022-11-18T22:31:23.708Z,66.13
2022-11-18T22:33:51.856Z,63.85
2022-11-18T22:36:20.122Z,60.17
2022-11-18T22:38:49.609Z,59.55
2022-11-18T22:41:36.538Z,60.05
2022-11-18T22:44:07.740Z,63.75
2022-11-18T22:46:35.541Z,66.43
2022-11-18T22:49:02.966Z,67.75
2022-11-18T22:51:30.141Z,60.72
2022-11-18T22:54:22.891Z,60.60
2022-11-18T22:56:44.516Z,57.13
2022-11-18T22:59:12.756Z,57.08
2022-11-18T23:01:40.155Z,60.03
2022-11-18T23:04:07.378Z,58.22
2022-11-18T23:06:34.725Z,55.70
2022-11-18T23:09:02.333Z,57.13
2022-11-18T23:11:48.184Z,63.05
2022-11-18T23:14:15.423Z,59.58
2022-11-18T23:16:43.462Z,56.95
2022-11-18T23:19:12.150Z,52.72
2022-11-18T23:21:39.549Z,53.88
2022-11-18T23:24:07.701Z,54.10
2022-11-18T23:26:34.912Z,56.90
2022-11-18T23:29:02.069Z,55.85
2022-11-18T23:31:29.304Z,57.35
2022-11-18T23:33:56.915Z,52.38
2022-11-18T23:36:24.363Z,55.83
2022-11-18T23:38:52.561Z,54.40
2022-11-18T23:41:19.760Z,54.75
2022-11-18T23:43:48.890Z,53.40
2022-11-18T23:46:16.949Z,50.38
2022-11-18T23:48:44.642Z,51.13
2022-11-18T23:51:16.450Z,51.58
2022-11-18T23:53:43.821Z,53.28
2022-11-18T23:56:12.823Z,54.22
2022-11-18T23:58:40.675Z,54.05
